createdAt,value
2023-05-05T00:00:27.151Z,95251.00
2023-05-05T00:01:27.170Z,95253.00
2023-05-05T00:02:27.183Z,95253.00
2023-05-05T00:03:27.216Z,95255.00
2023-05-05T00:04:27.181Z,95251.00
2023-05-05T00:05:27.196Z,95253.00
2023-05-05T00:06:27.213Z,95251.00
2023-05-05T00:07:27.206Z,95251.00
2023-05-05T00:08:27.229Z,95251.00
2023-05-05T00:09:27.247Z,95247.00
2023-05-05T00:10:27.244Z,95251.00
2023-05-05T00:11:27.260Z,95245.00
2023-05-05T00:12:27.263Z,95249.00
2023-05-05T00:13:27.266Z,95249.00
2023-05-05T00:14:27.286Z,95247.00
2023-05-05T00:15:27.311Z,95245.00
2023-05-05T00:16:27.379Z,95249.00
2023-05-05T00:17:27.401Z,95249.00
2023-05-05T00:18:27.324Z,95247.00
2023-05-05T00:19:27.343Z,95249.00
2023-05-05T00:20:27.354Z,95247.00
2023-05-05T00:21:27.357Z,95249.00
2023-05-05T00:22:27.384Z,95249.00
2023-05-05T00:23:27.375Z,95249.00
2023-05-05T00:24:27.426Z,95249.00
2023-05-05T00:25:27.429Z,95249.00
2023-05-05T00:26:27.453Z,95249.00
2023-05-05T00:27:27.481Z,95251.00
2023-05-05T00:28:27.493Z,95247.00
2023-05-05T00:29:27.487Z,95247.00
2023-05-05T00:30:27.580Z,95249.00
2023-05-05T00:31:27.586Z,95247.00
2023-05-05T00:32:27.583Z,95247.00
2023-05-05T00:33:27.563Z,95247.00
2023-05-05T00:34:27.603Z,95247.00
2023-05-05T00:35:27.610Z,95249.00
2023-05-05T00:36:27.630Z,95251.00
2023-05-05T00:37:27.643Z,95249.00
2023-05-05T00:38:27.651Z,95249.00
2023-05-05T00:39:27.677Z,95247.00
2023-05-05T00:40:27.726Z,95249.00
2023-05-05T00:41:27.738Z,95251.00
2023-05-05T00:42:27.732Z,95251.00
2023-05-05T00:43:27.735Z,95253.00
2023-05-05T00:44:27.797Z,95255.00
2023-05-05T00:45:27.811Z,95255.00
2023-05-05T00:46:27.954Z,95255.00
2023-05-05T00:47:27.901Z,95251.00
2023-05-05T00:48:27.895Z,95257.00
2023-05-05T00:49:27.926Z,95251.00
2023-05-05T00:50:27.920Z,95257.00
2023-05-05T00:51:27.945Z,95253.00
2023-05-05T00:52:27.952Z,95245.00
2023-05-05T00:53:28.030Z,95253.00
2023-05-05T00:54:28.009Z,95249.00
2023-05-05T00:55:28.055Z,95249.00
2023-05-05T00:56:28.088Z,95247.00
2023-05-05T00:57:28.099Z,95249.00
2023-05-05T00:58:28.098Z,95249.00
2023-05-05T00:59:28.142Z,95249.00
2023-05-05T01:00:28.187Z,95247.00
2023-05-05T01:01:28.221Z,95249.00
2023-05-05T01:02:28.249Z,95247.00
2023-05-05T01:03:28.281Z,95249.00
2023-05-05T01:04:28.315Z,95247.00
2023-05-05T01:05:28.244Z,95247.00
2023-05-05T01:06:28.284Z,95247.00
2023-05-05T01:07:28.291Z,95247.00
2023-05-05T01:08:28.293Z,95245.00
2023-05-05T01:09:28.346Z,95245.00
2023-05-05T01:10:28.361Z,95245.00
2023-05-05T01:11:28.405Z,95245.00
2023-05-05T01:12:28.396Z,95243.00
2023-05-05T01:13:28.444Z,95243.00
2023-05-05T01:14:28.454Z,95247.00
2023-05-05T01:15:28.480Z,95245.00
2023-05-05T01:16:28.501Z,95243.00
2023-05-05T01:17:28.535Z,95247.00
2023-05-05T01:18:28.500Z,95245.00
2023-05-05T01:19:28.545Z,95247.00
2023-05-05T01:20:28.560Z,95247.00
2023-05-05T01:21:28.635Z,95247.00
2023-05-05T01:22:28.623Z,95243.00
2023-05-05T01:23:28.644Z,95243.00
2023-05-05T01:24:28.645Z,95243.00
2023-05-05T01:25:28.682Z,95247.00
2023-05-05T01:26:28.705Z,95249.00
2023-05-05T01:27:28.724Z,95249.00
2023-05-05T01:28:28.753Z,95251.00
2023-05-05T01:29:28.761Z,95251.00
2023-05-05T01:30:28.801Z,95249.00
2023-05-05T01:31:28.861Z,95251.00
2023-05-05T01:32:28.886Z,95251.00
2023-05-05T01:33:28.883Z,95253.00
2023-05-05T01:34:28.902Z,95249.00
2023-05-05T01:35:28.929Z,95249.00
2023-05-05T01:36:28.927Z,95253.00
2023-05-05T01:37:28.988Z,95253.00
2023-05-05T01:38:29.031Z,95257.00
2023-05-05T01:39:29.047Z,95257.00
2023-05-05T01:40:29.044Z,95257.00
2023-05-05T01:41:29.098Z,95255.00
2023-05-05T01:42:29.120Z,95257.00
2023-05-05T01:43:29.143Z,95255.00
2023-05-05T01:44:29.172Z,95257.00
2023-05-05T01:45:29.209Z,95257.00
2023-05-05T01:46:29.210Z,95257.00
2023-05-05T01:47:29.271Z,95255.00
2023-05-05T01:48:29.281Z,95257.00
2023-05-05T01:49:29.290Z,95257.00
2023-05-05T01:50:29.378Z,95261.00
2023-05-05T01:51:29.355Z,95259.00
2023-05-05T01:52:29.384Z,95257.00
2023-05-05T01:53:29.399Z,95257.00
2023-05-05T01:54:29.452Z,95253.00
2023-05-05T01:55:29.454Z,95255.00
2023-05-05T01:56:29.489Z,95255.00
2023-05-05T01:57:29.519Z,95255.00
2023-05-05T01:58:29.521Z,95261.00
2023-05-05T01:59:29.589Z,95263.00
2023-05-05T02:00:29.621Z,95263.00
2023-05-05T02:01:29.684Z,95267.00
2023-05-05T02:02:29.694Z,95267.00
2023-05-05T02:03:29.715Z,95263.00
2023-05-05T02:04:29.719Z,95263.00
2023-05-05T02:05:29.744Z,95259.00
2023-05-05T02:06:29.782Z,95257.00
2023-05-05T02:07:29.819Z,95259.00
2023-05-05T02:08:29.821Z,95265.00
2023-05-05T02:09:29.878Z,95265.00
2023-05-05T02:10:29.903Z,95267.00
2023-05-05T02:11:29.918Z,95269.00
2023-05-05T02:12:30.079Z,95269.00
2023-05-05T02:13:29.975Z,95267.00
2023-05-05T02:14:30.031Z,95267.00
2023-05-05T02:15:30.094Z,95269.00
2023-05-05T02:16:30.076Z,95269.00
2023-05-05T02:17:30.117Z,95269.00
2023-05-05T02:18:30.101Z,95273.00
2023-05-05T02:19:30.162Z,95274.00
2023-05-05T02:20:30.171Z,95271.00
2023-05-05T02:21:30.221Z,95269.00
2023-05-05T02:22:30.237Z,95271.00
2023-05-05T02:23:30.242Z,95271.00
2023-05-05T02:24:30.291Z,95274.00
2023-05-05T02:25:30.300Z,95274.00
2023-05-05T02:26:30.333Z,95273.00
2023-05-05T02:27:30.345Z,95273.00
2023-05-05T02:28:30.392Z,95273.00
2023-05-05T02:29:30.416Z,95274.00
2023-05-05T02:30:30.442Z,95276.00
2023-05-05T02:31:30.519Z,95276.00
2023-05-05T02:32:30.546Z,95276.00
2023-05-05T02:33:30.499Z,95274.00
2023-05-05T02:34:30.537Z,95269.00
2023-05-05T02:35:30.549Z,95274.00
2023-05-05T02:36:30.588Z,95271.00
2023-05-05T02:37:30.642Z,95273.00
2023-05-05T02:38:30.657Z,95271.00
2023-05-05T02:39:30.692Z,95274.00
2023-05-05T02:40:30.702Z,95276.00
2023-05-05T02:41:30.773Z,95278.00
2023-05-05T02:42:30.757Z,95280.00
2023-05-05T02:43:30.785Z,95278.00
2023-05-05T02:44:30.810Z,95278.00
2023-05-05T02:45:30.853Z,95278.00
2023-05-05T02:46:30.967Z,95274.00
2023-05-05T02:47:30.910Z,95276.00
2023-05-05T02:48:30.925Z,95278.00
2023-05-05T02:49:30.981Z,95278.00
2023-05-05T02:50:30.974Z,95280.00
2023-05-05T02:51:31.026Z,95280.00
2023-05-05T02:52:31.026Z,95282.00
2023-05-05T02:53:31.028Z,95282.00
2023-05-05T02:54:31.078Z,95282.00
2023-05-05T02:55:31.078Z,95282.00
2023-05-05T02:56:31.129Z,95278.00
2023-05-05T02:57:31.163Z,95276.00
2023-05-05T02:58:31.179Z,95280.00
2023-05-05T02:59:31.261Z,95278.00
2023-05-05T03:00:31.252Z,95278.00
2023-05-05T03:01:31.329Z,95278.00
2023-05-05T03:02:31.344Z,95280.00
2023-05-05T03:03:31.396Z,95282.00
2023-05-05T03:04:31.335Z,95284.00
2023-05-05T03:05:31.395Z,95286.00
2023-05-05T03:06:31.436Z,95286.00
2023-05-05T03:07:31.403Z,95286.00
2023-05-05T03:08:31.448Z,95286.00
2023-05-05T03:09:31.476Z,95286.00
2023-05-05T03:10:31.536Z,95286.00
2023-05-05T03:11:31.523Z,95282.00
2023-05-05T03:12:31.561Z,95280.00
2023-05-05T03:13:31.584Z,95280.00
2023-05-05T03:14:33.421Z,95282.00
2023-05-05T03:15:31.634Z,95282.00
2023-05-05T03:16:31.681Z,95282.00
2023-05-05T03:17:31.700Z,95282.00
2023-05-05T03:18:31.698Z,95284.00
2023-05-05T03:19:31.721Z,95284.00
2023-05-05T03:20:31.753Z,95282.00
2023-05-05T03:21:31.791Z,95286.00
2023-05-05T03:22:31.784Z,95286.00
2023-05-05T03:23:31.825Z,95284.00
2023-05-05T03:24:31.876Z,95282.00
2023-05-05T03:25:31.887Z,95282.00
2023-05-05T03:26:31.893Z,95280.00
2023-05-05T03:27:31.914Z,95280.00
2023-05-05T03:28:31.964Z,95280.00
2023-05-05T03:29:31.990Z,95280.00
2023-05-05T03:30:32.013Z,95278.00
2023-05-05T03:31:32.075Z,95280.00
2023-05-05T03:32:32.078Z,95282.00
2023-05-05T03:33:32.045Z,95284.00
2023-05-05T03:34:32.107Z,95286.00
2023-05-05T03:35:32.222Z,95282.00
2023-05-05T03:36:32.233Z,95284.00
2023-05-05T03:37:32.236Z,95282.00
2023-05-05T03:38:32.227Z,95280.00
2023-05-05T03:39:32.216Z,95284.00
2023-05-05T03:40:40.735Z,95286.00
2023-05-05T03:41:33.253Z,95284.00
2023-05-05T03:42:32.253Z,95284.00
2023-05-05T03:43:32.232Z,95286.00
2023-05-05T03:44:32.266Z,95286.00
2023-05-05T03:45:32.390Z,95284.00
2023-05-05T03:46:32.226Z,95282.00
2023-05-05T03:47:32.255Z,95284.00
2023-05-05T03:48:32.319Z,95282.00
2023-05-05T03:49:32.176Z,95282.00
2023-05-05T03:50:32.153Z,95282.00
2023-05-05T03:51:32.187Z,95280.00
2023-05-05T03:52:32.186Z,95282.00
2023-05-05T03:53:32.175Z,95280.00
2023-05-05T03:54:32.138Z,95282.00
2023-05-05T03:55:32.141Z,95280.00
2023-05-05T03:56:32.138Z,95280.00
2023-05-05T03:57:32.181Z,95284.00
2023-05-05T03:58:32.207Z,95278.00
2023-05-05T03:59:32.208Z,95280.00
2023-05-05T04:00:32.252Z,95278.00
2023-05-05T04:01:32.283Z,95278.00
2023-05-05T04:02:32.401Z,95278.00
2023-05-05T04:03:32.483Z,95280.00
2023-05-05T04:04:32.517Z,95282.00
2023-05-05T04:05:32.489Z,95280.00
2023-05-05T04:06:32.392Z,95282.00
2023-05-05T04:07:32.454Z,95284.00
2023-05-05T04:08:32.442Z,95284.00
2023-05-05T04:09:32.478Z,95284.00
2023-05-05T04:10:32.522Z,95282.00
2023-05-05T04:11:32.516Z,95282.00
2023-05-05T04:12:32.580Z,95282.00
2023-05-05T04:13:32.570Z,95280.00
2023-05-05T04:14:32.582Z,95280.00
2023-05-05T04:15:32.632Z,95280.00
2023-05-05T04:16:32.766Z,95280.00
2023-05-05T04:17:32.742Z,95280.00
2023-05-05T04:18:32.847Z,95282.00
2023-05-05T04:19:32.762Z,95282.00
2023-05-05T04:20:32.791Z,95284.00
2023-05-05T04:21:32.831Z,95284.00
2023-05-05T04:22:32.871Z,95284.00
2023-05-05T04:23:32.906Z,95286.00
2023-05-05T04:24:32.942Z,95284.00
2023-05-05T04:25:32.973Z,95286.00
2023-05-05T04:26:32.999Z,95286.00
2023-05-05T04:27:33.034Z,95284.00
2023-05-05T04:28:33.062Z,95284.00
2023-05-05T04:29:33.102Z,95286.00
2023-05-05T04:30:33.146Z,95288.00
2023-05-05T04:31:33.222Z,95288.00
2023-05-05T04:32:33.240Z,95290.00
2023-05-05T04:33:33.217Z,95288.00
2023-05-05T04:34:33.264Z,95290.00
2023-05-05T04:35:33.304Z,95290.00
2023-05-05T04:36:33.346Z,95294.00
2023-05-05T04:37:33.357Z,95294.00
2023-05-05T04:38:33.441Z,95294.00
2023-05-05T04:39:33.428Z,95296.00
2023-05-05T04:40:33.550Z,95294.00
2023-05-05T04:41:33.541Z,95296.00
2023-05-05T04:42:33.547Z,95296.00
2023-05-05T04:43:33.575Z,95296.00
2023-05-05T04:44:33.655Z,95296.00
2023-05-05T04:45:33.677Z,95298.00
2023-05-05T04:46:33.980Z,95298.00
2023-05-05T04:47:33.724Z,95298.00
2023-05-05T04:48:33.765Z,95296.00
2023-05-05T04:49:33.812Z,95298.00
2023-05-05T04:50:33.848Z,95298.00
2023-05-05T04:51:33.863Z,95300.00
2023-05-05T04:52:33.906Z,95300.00
2023-05-05T04:53:33.949Z,95300.00
2023-05-05T04:54:33.978Z,95300.00
2023-05-05T04:55:34.046Z,95302.00
2023-05-05T04:56:34.037Z,95302.00
2023-05-05T04:57:34.088Z,95302.00
2023-05-05T04:58:34.102Z,95304.00
2023-05-05T04:59:34.147Z,95308.00
2023-05-05T05:00:34.184Z,95308.00
2023-05-05T05:01:36.232Z,95310.00
2023-05-05T05:02:34.266Z,95308.00
2023-05-05T05:03:34.314Z,95308.00
2023-05-05T05:04:34.200Z,95310.00
2023-05-05T05:05:34.198Z,95310.00
2023-05-05T05:06:34.203Z,95314.00
2023-05-05T05:07:34.190Z,95312.00
2023-05-05T05:08:34.189Z,95312.00
2023-05-05T05:09:34.177Z,95314.00
2023-05-05T05:10:34.162Z,95314.00
2023-05-05T05:11:34.155Z,95314.00
2023-05-05T05:12:34.161Z,95312.00
2023-05-05T05:13:34.146Z,95314.00
2023-05-05T05:14:34.134Z,95314.00
2023-05-05T05:15:34.133Z,95316.00
2023-05-05T05:16:34.191Z,95316.00
2023-05-05T05:17:34.145Z,95314.00
2023-05-05T05:18:34.124Z,95312.00
2023-05-05T05:19:34.087Z,95310.00
2023-05-05T05:20:34.089Z,95312.00
2023-05-05T05:21:34.101Z,95312.00
2023-05-05T05:22:34.124Z,95312.00
2023-05-05T05:23:34.956Z,95310.00
2023-05-05T05:24:34.067Z,95310.00
2023-05-05T05:25:34.086Z,95312.00
2023-05-05T05:26:34.065Z,95312.00
2023-05-05T05:27:34.038Z,95310.00
2023-05-05T05:28:34.059Z,95312.00
2023-05-05T05:29:34.018Z,95314.00
2023-05-05T05:30:34.025Z,95314.00
2023-05-05T05:31:34.076Z,95312.00
2023-05-05T05:32:34.038Z,95310.00
2023-05-05T05:33:34.003Z,95314.00
2023-05-05T05:34:34.029Z,95314.00
2023-05-05T05:35:34.007Z,95316.00
2023-05-05T05:36:34.009Z,95316.00
2023-05-05T05:37:33.963Z,95316.00
2023-05-05T05:38:33.970Z,95314.00
2023-05-05T05:39:34.027Z,95314.00
2023-05-05T05:40:33.971Z,95314.00
2023-05-05T05:41:33.955Z,95314.00
2023-05-05T05:42:33.943Z,95316.00
2023-05-05T05:43:33.949Z,95316.00
2023-05-05T05:44:34.025Z,95316.00
2023-05-05T05:45:33.922Z,95318.00
2023-05-05T05:46:33.997Z,95316.00
2023-05-05T05:47:33.949Z,95316.00
2023-05-05T05:48:33.919Z,95318.00
2023-05-05T05:49:33.898Z,95316.00
2023-05-05T05:50:33.889Z,95318.00
2023-05-05T05:51:33.919Z,95320.00
2023-05-05T05:52:33.917Z,95318.00
2023-05-05T05:53:33.955Z,95320.00
2023-05-05T05:54:33.978Z,95320.00
2023-05-05T05:55:34.003Z,95318.00
2023-05-05T05:56:34.025Z,95318.00
2023-05-05T05:57:34.051Z,95318.00
2023-05-05T05:58:34.052Z,95316.00
2023-05-05T05:59:34.121Z,95318.00
2023-05-05T06:00:34.202Z,95318.00
2023-05-05T06:01:34.150Z,95324.00
2023-05-05T06:02:34.258Z,95320.00
2023-05-05T06:03:34.395Z,95318.00
2023-05-05T06:04:34.333Z,95320.00
2023-05-05T06:05:34.313Z,95322.00
2023-05-05T06:06:34.300Z,95322.00
2023-05-05T06:07:34.316Z,95322.00
2023-05-05T06:08:34.339Z,95322.00
2023-05-05T06:09:34.372Z,95320.00
2023-05-05T06:10:34.691Z,95320.00
2023-05-05T06:11:34.403Z,95320.00
2023-05-05T06:12:34.440Z,95318.00
2023-05-05T06:13:34.498Z,95318.00
2023-05-05T06:14:34.526Z,95320.00
2023-05-05T06:15:34.558Z,95320.00
2023-05-05T06:16:34.565Z,95318.00
2023-05-05T06:17:34.614Z,95322.00
2023-05-05T06:18:34.628Z,95322.00
2023-05-05T06:19:34.647Z,95318.00
2023-05-05T06:20:34.699Z,95316.00
2023-05-05T06:21:34.710Z,95314.00
2023-05-05T06:22:34.756Z,95316.00
2023-05-05T06:23:34.773Z,95316.00
2023-05-05T06:24:34.794Z,95312.00
2023-05-05T06:25:34.865Z,95310.00
2023-05-05T06:26:34.976Z,95312.00
2023-05-05T06:27:34.881Z,95312.00
2023-05-05T06:28:34.880Z,95312.00
2023-05-05T06:29:34.946Z,95310.00
2023-05-05T06:30:34.960Z,95310.00
2023-05-05T06:31:34.992Z,95310.00
2023-05-05T06:32:35.047Z,95310.00
2023-05-05T06:33:35.037Z,95308.00
2023-05-05T06:34:35.044Z,95306.00
2023-05-05T06:35:35.061Z,95306.00
2023-05-05T06:36:35.121Z,95304.00
2023-05-05T06:37:35.148Z,95302.00
2023-05-05T06:38:35.167Z,95300.00
2023-05-05T06:39:35.174Z,95300.00
2023-05-05T06:40:35.237Z,95296.00
2023-05-05T06:41:35.233Z,95298.00
2023-05-05T06:42:35.242Z,95294.00
2023-05-05T06:43:35.275Z,95294.00
2023-05-05T06:44:35.286Z,95292.00
2023-05-05T06:45:35.306Z,95292.00
2023-05-05T06:46:35.611Z,95294.00
2023-05-05T06:47:35.388Z,95292.00
2023-05-05T06:48:35.420Z,95288.00
2023-05-05T06:49:35.422Z,95288.00
2023-05-05T06:50:35.457Z,95286.00
2023-05-05T06:51:35.467Z,95284.00
2023-05-05T06:52:35.508Z,95286.00
2023-05-05T06:53:35.566Z,95286.00
2023-05-05T06:54:35.527Z,95284.00
2023-05-05T06:55:35.578Z,95284.00
2023-05-05T06:56:35.592Z,95284.00
2023-05-05T06:57:35.620Z,95286.00
2023-05-05T06:58:35.642Z,95288.00
2023-05-05T06:59:35.655Z,95288.00
2023-05-05T07:00:35.741Z,95286.00
2023-05-05T07:01:35.743Z,95284.00
2023-05-05T07:02:35.747Z,95284.00
2023-05-05T07:03:35.838Z,95286.00
2023-05-05T07:04:35.811Z,95282.00
2023-05-05T07:05:35.818Z,95282.00
2023-05-05T07:06:36.008Z,95282.00
2023-05-05T07:07:35.857Z,95282.00
2023-05-05T07:08:35.896Z,95280.00
2023-05-05T07:09:35.952Z,95280.00
2023-05-05T07:10:35.948Z,95280.00
2023-05-05T07:11:35.941Z,95278.00
2023-05-05T07:12:36.006Z,95278.00
2023-05-05T07:13:36.002Z,95276.00
2023-05-05T07:14:36.094Z,95274.00
2023-05-05T07:15:36.048Z,95274.00
2023-05-05T07:16:36.096Z,95274.00
2023-05-05T07:17:36.138Z,95273.00
2023-05-05T07:18:36.127Z,95271.00
2023-05-05T07:19:36.186Z,95269.00
2023-05-05T07:20:36.209Z,95267.00
2023-05-05T07:21:36.207Z,95263.00
2023-05-05T07:22:36.217Z,95263.00
2023-05-05T07:23:36.385Z,95259.00
2023-05-05T07:24:36.294Z,95259.00
2023-05-05T07:25:36.340Z,95259.00
2023-05-05T07:26:36.326Z,95259.00
2023-05-05T07:27:36.364Z,95261.00
2023-05-05T07:28:36.373Z,95255.00
2023-05-05T07:29:36.400Z,95261.00
2023-05-05T07:30:36.499Z,95259.00
2023-05-05T07:31:36.470Z,95259.00
2023-05-05T07:32:36.497Z,95255.00
2023-05-05T07:33:36.524Z,95255.00
2023-05-05T07:34:39.528Z,95253.00
2023-05-05T07:35:36.542Z,95251.00
2023-05-05T07:36:36.541Z,95251.00
2023-05-05T07:37:36.509Z,95249.00
2023-05-05T07:38:36.532Z,95247.00
2023-05-05T07:39:36.491Z,95249.00
2023-05-05T07:40:36.472Z,95245.00
2023-05-05T07:41:36.479Z,95249.00
2023-05-05T07:42:36.540Z,95245.00
2023-05-05T07:43:36.756Z,95245.00
2023-05-05T07:44:36.458Z,95243.00
2023-05-05T07:45:36.461Z,95245.00
2023-05-05T07:46:36.803Z,95237.00
2023-05-05T07:47:36.511Z,95235.00
2023-05-05T07:48:36.449Z,95233.00
2023-05-05T07:49:36.435Z,95229.00
2023-05-05T07:50:36.452Z,95229.00
2023-05-05T07:51:36.420Z,95229.00
2023-05-05T07:52:46.492Z,95226.00
2023-05-05T07:53:37.398Z,95224.00
2023-05-05T07:54:36.425Z,95224.00
2023-05-05T07:55:36.393Z,95224.00
2023-05-05T07:56:36.389Z,95222.00
2023-05-05T07:57:36.399Z,95222.00
2023-05-05T07:58:36.400Z,95220.00
2023-05-05T07:59:36.367Z,95224.00
2023-05-05T08:00:36.353Z,95220.00
2023-05-05T08:01:36.353Z,95218.00
2023-05-05T08:02:36.711Z,95218.00
2023-05-05T08:03:36.522Z,95218.00
2023-05-05T08:04:36.372Z,95218.00
2023-05-05T08:05:36.362Z,95218.00
2023-05-05T08:06:36.307Z,95218.00
2023-05-05T08:07:36.328Z,95218.00
2023-05-05T08:08:36.309Z,95218.00
2023-05-05T08:09:36.308Z,95216.00
2023-05-05T08:10:36.341Z,95218.00
2023-05-05T08:11:36.293Z,95214.00
2023-05-05T08:12:36.345Z,95214.00
2023-05-05T08:13:36.295Z,95214.00
2023-05-05T08:14:36.274Z,95210.00
2023-05-05T08:15:36.251Z,95210.00
2023-05-05T08:16:36.497Z,95208.00
2023-05-05T08:17:36.399Z,95206.00
2023-05-05T08:18:36.472Z,95206.00
2023-05-05T08:19:36.352Z,95204.00
2023-05-05T08:20:36.396Z,95200.00
2023-05-05T08:21:36.444Z,95200.00
2023-05-05T08:22:36.431Z,95200.00
2023-05-05T08:23:36.443Z,95200.00
2023-05-05T08:24:36.488Z,95202.00
2023-05-05T08:25:36.514Z,95202.00
2023-05-05T08:26:36.514Z,95198.00
2023-05-05T08:27:36.562Z,95196.00
2023-05-05T08:28:36.562Z,95196.00
2023-05-05T08:29:36.562Z,95196.00
2023-05-05T08:30:36.597Z,95190.00
2023-05-05T08:31:36.670Z,95190.00
2023-05-05T08:32:36.652Z,95188.00
2023-05-05T08:33:36.649Z,95188.00
2023-05-05T08:34:36.731Z,95186.00
2023-05-05T08:35:36.663Z,95186.00
2023-05-05T08:36:36.730Z,95186.00
2023-05-05T08:37:37.058Z,95182.00
2023-05-05T08:38:36.759Z,95180.00
2023-05-05T08:39:36.781Z,95177.00
2023-05-05T08:40:36.749Z,95179.00
2023-05-05T08:41:36.807Z,95175.00
2023-05-05T08:42:38.505Z,95173.00
2023-05-05T08:43:36.853Z,95175.00
2023-05-05T08:44:36.893Z,95169.00
2023-05-05T08:45:36.891Z,95171.00
2023-05-05T08:46:36.938Z,95169.00
2023-05-05T08:47:37.022Z,95167.00
2023-05-05T08:48:36.975Z,95165.00
2023-05-05T08:49:36.994Z,95161.00
2023-05-05T08:50:37.080Z,95161.00
2023-05-05T08:51:37.045Z,95157.00
2023-05-05T08:52:37.584Z,95157.00
2023-05-05T08:53:37.112Z,95157.00
2023-05-05T08:54:37.103Z,95159.00
2023-05-05T08:55:37.107Z,95157.00
2023-05-05T08:56:37.137Z,95155.00
2023-05-05T08:57:37.178Z,95155.00
2023-05-05T08:58:37.150Z,95155.00
2023-05-05T08:59:37.186Z,95153.00
2023-05-05T09:00:37.212Z,95153.00
2023-05-05T09:01:37.348Z,95153.00
2023-05-05T09:02:37.307Z,95149.00
2023-05-05T09:03:37.282Z,95149.00
2023-05-05T09:04:37.297Z,95141.00
2023-05-05T09:05:37.309Z,95137.00
2023-05-05T09:06:37.512Z,95139.00
2023-05-05T09:07:37.545Z,95135.00
2023-05-05T09:08:37.348Z,95139.00
2023-05-05T09:09:37.404Z,95133.00
2023-05-05T09:10:37.416Z,95133.00
2023-05-05T09:11:37.454Z,95131.00
2023-05-05T09:12:37.471Z,95131.00
2023-05-05T09:13:37.487Z,95127.00
2023-05-05T09:14:37.491Z,95129.00
2023-05-05T09:15:37.500Z,95129.00
2023-05-05T09:16:37.641Z,95127.00
2023-05-05T09:17:37.671Z,95127.00
2023-05-05T09:18:37.573Z,95124.00
2023-05-05T09:19:37.616Z,95122.00
2023-05-05T09:20:37.612Z,95120.00
2023-05-05T09:21:37.644Z,95118.00
2023-05-05T09:22:38.034Z,95116.00
2023-05-05T09:23:37.646Z,95114.00
2023-05-05T09:24:37.640Z,95114.00
2023-05-05T09:25:37.788Z,95114.00
2023-05-05T09:26:37.809Z,95112.00
2023-05-05T09:27:38.040Z,95110.00
2023-05-05T09:28:37.700Z,95108.00
2023-05-05T09:29:37.735Z,95108.00
2023-05-05T09:30:37.798Z,95108.00
2023-05-05T09:31:37.800Z,95102.00
2023-05-05T09:32:37.822Z,95102.00
2023-05-05T09:33:37.794Z,95102.00
2023-05-05T09:34:37.845Z,95100.00
2023-05-05T09:35:37.856Z,95098.00
2023-05-05T09:36:38.560Z,95096.00
2023-05-05T09:37:37.864Z,95096.00
2023-05-05T09:38:37.961Z,95094.00
2023-05-05T09:39:37.907Z,95094.00
2023-05-05T09:40:37.902Z,95090.00
2023-05-05T09:41:37.947Z,95090.00
2023-05-05T09:42:38.069Z,95090.00
2023-05-05T09:43:37.975Z,95088.00
2023-05-05T09:44:38.002Z,95086.00
2023-05-05T09:45:38.019Z,95086.00
2023-05-05T09:46:38.054Z,95084.00
2023-05-05T09:47:38.140Z,95086.00
2023-05-05T09:48:38.072Z,95084.00
2023-05-05T09:49:38.109Z,95080.00
2023-05-05T09:50:38.147Z,95080.00
2023-05-05T09:51:38.150Z,95080.00
2023-05-05T09:52:38.179Z,95079.00
2023-05-05T09:53:38.169Z,95077.00
2023-05-05T09:54:38.265Z,95077.00
2023-05-05T09:55:38.218Z,95077.00
2023-05-05T09:56:38.240Z,95075.00
2023-05-05T09:57:38.548Z,95073.00
2023-05-05T09:58:38.319Z,95075.00
2023-05-05T09:59:38.290Z,95075.00
2023-05-05T10:00:38.306Z,95071.00
2023-05-05T10:01:38.449Z,95071.00
2023-05-05T10:02:38.739Z,95067.00
2023-05-05T10:03:38.321Z,95067.00
2023-05-05T10:04:38.368Z,95067.00
2023-05-05T10:05:38.362Z,95065.00
2023-05-05T10:06:38.355Z,95067.00
2023-05-05T10:07:38.395Z,95065.00
2023-05-05T10:08:38.402Z,95065.00
2023-05-05T10:09:38.407Z,95061.00
2023-05-05T10:10:38.507Z,95061.00
2023-05-05T10:11:38.591Z,95061.00
2023-05-05T10:12:38.517Z,95063.00
2023-05-05T10:13:38.474Z,95059.00
2023-05-05T10:14:38.476Z,95057.00
2023-05-05T10:15:38.507Z,95053.00
2023-05-05T10:16:38.575Z,95051.00
2023-05-05T10:17:38.619Z,95047.00
2023-05-05T10:18:38.629Z,95045.00
2023-05-05T10:19:38.523Z,95043.00
2023-05-05T10:20:38.647Z,95043.00
2023-05-05T10:21:39.320Z,95043.00
2023-05-05T10:22:38.579Z,95039.00
2023-05-05T10:23:38.525Z,95041.00
2023-05-05T10:24:38.520Z,95037.00
2023-05-05T10:25:38.589Z,95039.00
2023-05-05T10:26:38.625Z,95035.00
2023-05-05T10:27:38.534Z,95035.00
2023-05-05T10:28:38.527Z,95033.00
2023-05-05T10:29:38.541Z,95035.00
2023-05-05T10:30:38.496Z,95030.00
2023-05-05T10:31:38.506Z,95028.00
2023-05-05T10:33:38.751Z,95024.00
2023-05-05T10:34:38.562Z,95020.00
2023-05-05T10:35:38.485Z,95022.00
2023-05-05T10:36:38.462Z,95014.00
2023-05-05T10:37:39.101Z,95014.00
2023-05-05T10:38:38.448Z,95012.00
2023-05-05T10:39:38.452Z,95014.00
2023-05-05T10:40:38.415Z,95010.00
2023-05-05T10:41:38.435Z,95008.00
2023-05-05T10:42:38.586Z,95004.00
2023-05-05T10:43:38.443Z,95006.00
2023-05-05T10:44:38.428Z,95004.00
2023-05-05T10:45:38.538Z,95000.00
2023-05-05T10:46:38.474Z,95002.00
2023-05-05T10:47:38.438Z,95000.00
2023-05-05T10:48:38.443Z,94998.00
2023-05-05T10:49:38.398Z,94996.00
2023-05-05T10:50:38.381Z,94994.00
2023-05-05T10:51:41.013Z,94990.00
2023-05-05T10:52:38.335Z,94990.00
2023-05-05T10:53:38.360Z,94986.00
2023-05-05T10:54:38.636Z,94988.00
2023-05-05T10:55:38.356Z,94982.00
2023-05-05T10:56:38.341Z,94984.00
2023-05-05T10:57:38.316Z,94982.00
2023-05-05T10:58:51.077Z,94980.00
2023-05-05T10:59:39.333Z,94980.00
2023-05-05T11:00:38.306Z,94978.00
2023-05-05T11:01:38.348Z,94975.00
2023-05-05T11:02:38.304Z,94973.00
2023-05-05T11:03:38.317Z,94971.00
2023-05-05T11:04:38.286Z,94971.00
2023-05-05T11:05:38.280Z,94969.00
2023-05-05T11:06:38.290Z,94965.00
2023-05-05T11:07:38.271Z,94963.00
2023-05-05T11:08:38.253Z,94963.00
2023-05-05T11:09:38.265Z,94959.00
2023-05-05T11:10:38.239Z,94957.00
2023-05-05T11:11:38.231Z,94953.00
2023-05-05T11:12:38.911Z,94951.00
2023-05-05T11:13:38.203Z,94949.00
2023-05-05T11:14:38.279Z,94949.00
2023-05-05T11:15:38.259Z,94943.00
2023-05-05T11:16:38.236Z,94941.00
2023-05-05T11:17:38.233Z,94939.00
2023-05-05T11:18:38.229Z,94935.00
2023-05-05T11:19:38.188Z,94933.00
2023-05-05T11:20:38.176Z,94931.00
2023-05-05T11:21:38.174Z,94928.00
2023-05-05T11:22:38.212Z,94930.00
2023-05-05T11:23:38.195Z,94926.00
2023-05-05T11:24:38.131Z,94926.00
2023-05-05T11:25:38.392Z,94924.00
2023-05-05T11:26:38.160Z,94922.00
2023-05-05T11:27:38.156Z,94924.00
2023-05-05T11:28:38.604Z,94922.00
2023-05-05T11:29:38.117Z,94920.00
2023-05-05T11:30:38.185Z,94920.00
2023-05-05T11:31:38.206Z,94918.00
2023-05-05T11:32:38.209Z,94916.00
2023-05-05T11:33:38.140Z,94918.00
2023-05-05T11:34:38.082Z,94912.00
2023-05-05T11:35:38.056Z,94910.00
2023-05-05T11:36:38.059Z,94912.00
2023-05-05T11:37:38.069Z,94908.00
2023-05-05T11:38:38.079Z,94912.00
2023-05-05T11:39:38.062Z,94908.00
2023-05-05T11:40:38.055Z,94902.00
2023-05-05T11:41:38.056Z,94898.00
2023-05-05T11:42:38.031Z,94894.00
2023-05-05T11:43:38.075Z,94892.00
2023-05-05T11:44:38.056Z,94885.00
2023-05-05T11:45:38.055Z,94883.00